createdAt,value
2019-05-28T00:00:40.624Z,23.80
2019-05-28T00:01:43.895Z,24.00
2019-05-28T00:02:46.660Z,24.80
2019-05-28T00:03:49.196Z,23.80
2019-05-28T00:04:52.912Z,24.00
2019-05-28T00:05:55.196Z,24.00
2019-05-28T00:06:57.787Z,24.00
2019-05-28T00:08:00.774Z,23.00
2019-05-28T00:09:06.660Z,23.20
2019-05-28T00:10:11.487Z,25.00
2019-05-28T00:11:13.977Z,23.20
2019-05-28T00:12:16.414Z,23.00
2019-05-28T00:13:18.808Z,23.00
2019-05-28T00:14:21.214Z,24.80
2019-05-28T00:15:23.888Z,23.20
2019-05-28T00:16:26.451Z,30.40
2019-05-28T00:17:29.022Z,24.60
2019-05-28T00:18:30.865Z,26.00
2019-05-28T00:19:34.720Z,25.20
2019-05-28T00:20:38.315Z,23.60
2019-05-28T00:21:40.784Z,23.80
2019-05-28T00:22:43.512Z,23.40
2019-05-28T00:23:45.914Z,24.80
2019-05-28T00:24:48.823Z,23.20
2019-05-28T00:25:51.319Z,24.00
2019-05-28T00:26:54.419Z,24.00
2019-05-28T00:27:57.150Z,24.60
2019-05-28T00:28:59.897Z,24.80
2019-05-28T00:30:18.629Z,24.60
2019-05-28T00:31:09.740Z,26.00
2019-05-28T00:32:12.195Z,28.20
2019-05-28T00:33:14.875Z,24.00
2019-05-28T00:34:18.150Z,23.00
2019-05-28T00:35:21.216Z,23.00
2019-05-28T00:36:24.145Z,24.40
2019-05-28T00:37:26.465Z,24.00
2019-05-28T00:38:29.439Z,24.80
2019-05-28T00:39:32.583Z,23.60
2019-05-28T00:40:35.155Z,24.40
2019-05-28T00:41:37.885Z,26.60
2019-05-28T00:42:40.654Z,24.40
2019-05-28T00:43:44.295Z,25.20
2019-05-28T00:44:47.998Z,23.80
2019-05-28T00:45:50.711Z,24.00
2019-05-28T00:46:52.842Z,24.40
2019-05-28T00:47:55.245Z,24.00
2019-05-28T00:48:57.805Z,23.20
2019-05-28T00:50:00.299Z,25.40
2019-05-28T00:51:04.721Z,24.60
2019-05-28T00:52:06.742Z,25.60
2019-05-28T00:53:09.889Z,24.00
2019-05-28T00:54:12.760Z,26.00
2019-05-28T00:55:15.473Z,24.40
2019-05-28T00:56:19.026Z,25.60
2019-05-28T00:57:22.777Z,24.60
2019-05-28T00:58:26.139Z,23.20
2019-05-28T00:59:29.909Z,23.80
2019-05-28T01:00:44.356Z,24.00
2019-05-28T01:01:46.495Z,33.80
2019-05-28T01:02:49.178Z,25.40
2019-05-28T01:03:51.500Z,25.60
2019-05-28T01:04:54.205Z,23.60
2019-05-28T01:05:57.039Z,24.40
2019-05-28T01:06:59.391Z,24.00
2019-05-28T01:08:01.681Z,24.00
2019-05-28T01:09:06.720Z,24.00
2019-05-28T01:10:09.451Z,25.60
2019-05-28T01:11:11.878Z,24.00
2019-05-28T01:12:15.036Z,23.80
2019-05-28T01:13:17.512Z,26.00
2019-05-28T01:14:19.870Z,23.80
2019-05-28T01:15:22.569Z,26.60
2019-05-28T01:16:25.392Z,24.00
2019-05-28T01:17:28.236Z,26.00
2019-05-28T01:18:30.518Z,25.20
2019-05-28T01:19:33.484Z,23.60
2019-05-28T01:20:35.865Z,24.60
2019-05-28T01:21:38.141Z,24.80
2019-05-28T01:22:40.436Z,25.20
2019-05-28T01:23:42.858Z,27.20
2019-05-28T01:24:45.626Z,25.40
2019-05-28T01:25:51.389Z,24.20
2019-05-28T01:26:54.046Z,25.20
2019-05-28T01:27:57.054Z,23.20
2019-05-28T01:29:00.590Z,24.80
2019-05-28T01:30:06.509Z,23.80
2019-05-28T01:31:09.533Z,23.40
2019-05-28T01:32:12.448Z,22.80
2019-05-28T01:33:14.810Z,23.00
2019-05-28T01:34:16.588Z,23.00
2019-05-28T01:35:19.182Z,23.80
2019-05-28T01:36:21.831Z,25.00
2019-05-28T01:37:23.903Z,23.40
2019-05-28T01:38:26.398Z,25.80
2019-05-28T01:39:29.902Z,23.80
2019-05-28T01:40:31.924Z,23.60
2019-05-28T01:41:35.598Z,25.60
2019-05-28T01:42:37.420Z,25.20
2019-05-28T01:43:39.730Z,25.60
2019-05-28T01:44:42.368Z,23.60
2019-05-28T01:45:44.366Z,26.20
2019-05-28T01:46:47.216Z,24.60
2019-05-28T01:47:49.830Z,24.60
2019-05-28T01:48:52.029Z,26.80
2019-05-28T01:49:56.541Z,26.00
2019-05-28T01:50:59.035Z,27.20
2019-05-28T01:52:01.756Z,26.00
2019-05-28T01:53:04.154Z,26.20
2019-05-28T01:54:07.004Z,27.60
2019-05-28T01:55:09.735Z,24.20
2019-05-28T01:56:12.271Z,25.40
2019-05-28T01:57:14.552Z,24.60
2019-05-28T01:58:16.666Z,25.00
2019-05-28T01:59:18.967Z,25.40
2019-05-28T02:00:22.345Z,25.20
2019-05-28T02:01:24.955Z,24.60
2019-05-28T02:02:27.638Z,24.60
2019-05-28T02:03:29.788Z,24.40
2019-05-28T02:04:32.271Z,22.20
2019-05-28T02:05:35.136Z,23.20
2019-05-28T02:06:37.715Z,24.60
2019-05-28T02:07:40.655Z,24.00
2019-05-28T02:08:43.051Z,25.60
2019-05-28T02:09:44.739Z,24.60
2019-05-28T02:10:47.205Z,25.00
2019-05-28T02:11:49.662Z,24.60
2019-05-28T02:12:52.468Z,26.20
2019-05-28T02:13:55.203Z,25.60
2019-05-28T02:14:57.965Z,23.60
2019-05-28T02:16:01.703Z,25.00
2019-05-28T02:17:04.226Z,25.60
2019-05-28T02:18:06.968Z,26.00
2019-05-28T02:19:09.063Z,25.40
2019-05-28T02:20:12.512Z,25.00
2019-05-28T02:21:15.049Z,25.20
2019-05-28T02:22:20.075Z,26.80
2019-05-28T02:23:22.501Z,27.80
2019-05-28T02:24:25.528Z,26.20
2019-05-28T02:25:28.132Z,25.80
2019-05-28T02:26:30.408Z,27.60
2019-05-28T02:27:32.221Z,27.40
2019-05-28T02:28:34.510Z,25.60
2019-05-28T02:29:37.356Z,27.40
2019-05-28T02:30:39.625Z,26.60
2019-05-28T02:31:42.287Z,26.00
2019-05-28T02:32:44.890Z,26.00
2019-05-28T02:33:47.652Z,27.40
2019-05-28T02:34:52.465Z,26.20
2019-05-28T02:35:55.289Z,26.20
2019-05-28T02:36:57.936Z,25.80
2019-05-28T02:38:00.228Z,26.20
2019-05-28T02:39:06.060Z,28.00
2019-05-28T02:40:09.266Z,26.80
2019-05-28T02:41:11.672Z,29.00
2019-05-28T02:42:14.125Z,28.00
2019-05-28T02:43:16.899Z,26.00
2019-05-28T02:44:19.814Z,25.60
2019-05-28T02:45:22.019Z,29.80
2019-05-28T02:46:24.702Z,26.00
2019-05-28T02:47:27.088Z,25.20
2019-05-28T02:48:29.781Z,25.80
2019-05-28T02:49:33.092Z,25.60
2019-05-28T02:50:55.684Z,25.80
2019-05-28T02:51:58.513Z,25.80
2019-05-28T02:53:01.107Z,26.20
2019-05-28T02:54:04.209Z,25.00
2019-05-28T02:55:07.768Z,24.80
2019-05-28T02:56:13.382Z,24.80
2019-05-28T02:57:17.738Z,25.00
2019-05-28T02:58:23.198Z,26.00
2019-05-28T02:59:27.583Z,25.80
2019-05-28T03:00:30.303Z,24.40
2019-05-28T03:01:44.401Z,24.60
2019-05-28T03:02:47.072Z,25.40
2019-05-28T03:03:53.583Z,24.20
2019-05-28T03:04:59.368Z,25.00
2019-05-28T03:06:05.572Z,26.00
2019-05-28T03:07:09.262Z,25.40
2019-05-28T03:08:15.073Z,25.60
2019-05-28T03:09:19.794Z,25.00
2019-05-28T03:10:59.779Z,25.00
2019-05-28T03:11:40.031Z,24.00
2019-05-28T03:12:42.993Z,25.80
2019-05-28T03:13:48.005Z,24.40
2019-05-28T03:14:50.963Z,25.60
2019-05-28T03:15:57.511Z,24.60
2019-05-28T03:17:04.769Z,25.60
2019-05-28T03:18:09.830Z,25.00
2019-05-28T03:19:13.123Z,25.40
2019-05-28T03:20:19.853Z,24.40
2019-05-28T03:21:25.065Z,25.60
2019-05-28T03:22:30.379Z,25.40
2019-05-28T03:23:36.427Z,24.60
2019-05-28T03:24:41.898Z,24.60
2019-05-28T03:25:44.618Z,25.00
2019-05-28T03:26:47.569Z,23.20
2019-05-28T03:27:50.715Z,24.20
2019-05-28T03:28:54.118Z,26.00
2019-05-28T03:29:57.173Z,25.60
2019-05-28T03:30:59.838Z,26.00
2019-05-28T03:32:08.047Z,24.60
2019-05-28T03:33:07.938Z,26.80
2019-05-28T03:34:10.040Z,25.60
2019-05-28T03:35:13.456Z,27.00
2019-05-28T03:36:17.675Z,27.00
2019-05-28T03:37:19.717Z,27.00
2019-05-28T03:38:24.345Z,25.60
2019-05-28T03:39:27.940Z,26.00
2019-05-28T03:40:47.255Z,27.00
2019-05-28T03:41:49.708Z,28.20
2019-05-28T03:42:52.268Z,26.60
2019-05-28T03:43:54.690Z,26.40
2019-05-28T03:44:57.332Z,26.00
2019-05-28T03:45:59.952Z,26.40
2019-05-28T03:47:02.980Z,26.00
2019-05-28T03:48:05.598Z,25.80
2019-05-28T03:49:07.344Z,26.80
2019-05-28T03:50:10.332Z,26.40
2019-05-28T03:51:13.166Z,26.40
2019-05-28T03:52:16.214Z,26.40
2019-05-28T03:53:19.189Z,25.00
2019-05-28T03:54:22.032Z,26.60
2019-05-28T03:55:24.499Z,27.00
2019-05-28T03:56:26.912Z,24.60
2019-05-28T03:57:29.110Z,25.60
2019-05-28T03:58:32.726Z,24.60
2019-05-28T03:59:35.593Z,26.00
2019-05-28T04:00:38.554Z,25.20
2019-05-28T04:01:42.231Z,26.40
2019-05-28T04:02:45.090Z,25.20
2019-05-28T04:03:47.574Z,26.00
2019-05-28T04:04:50.144Z,25.20
2019-05-28T04:05:53.139Z,25.00
2019-05-28T04:06:55.841Z,26.00
2019-05-28T04:08:00.994Z,26.00
2019-05-28T04:09:07.094Z,24.60
2019-05-28T04:10:09.623Z,24.60
2019-05-28T04:11:12.456Z,25.80
2019-05-28T04:12:14.570Z,24.80
2019-05-28T04:13:17.743Z,24.00
2019-05-28T04:14:20.630Z,25.00
2019-05-28T04:15:22.603Z,24.20
2019-05-28T04:16:25.080Z,24.80
2019-05-28T04:17:27.672Z,25.00
2019-05-28T04:18:30.100Z,25.60
2019-05-28T04:19:33.141Z,25.40
2019-05-28T04:20:35.838Z,25.00
2019-05-28T04:21:38.115Z,24.40
2019-05-28T04:22:41.369Z,25.00
2019-05-28T04:23:43.651Z,25.80
2019-05-28T04:24:46.209Z,24.20
2019-05-28T04:25:48.587Z,23.80
2019-05-28T04:26:52.731Z,23.80
2019-05-28T04:27:54.435Z,25.80
2019-05-28T04:28:57.818Z,25.20
2019-05-28T04:30:00.241Z,24.00
2019-05-28T04:31:02.397Z,23.80
2019-05-28T04:32:04.970Z,23.60
2019-05-28T04:33:07.019Z,25.00
2019-05-28T04:34:09.397Z,26.00
2019-05-28T04:35:13.526Z,24.40
2019-05-28T04:36:16.452Z,24.80
2019-05-28T04:37:18.564Z,24.20
2019-05-28T04:38:21.311Z,25.20
2019-05-28T04:39:24.441Z,23.00
2019-05-28T04:40:27.959Z,23.60
2019-05-28T04:41:30.467Z,24.60
2019-05-28T04:42:33.067Z,23.80
2019-05-28T04:43:37.172Z,24.40
2019-05-28T04:44:39.770Z,25.40
2019-05-28T04:45:48.994Z,25.60
2019-05-28T04:46:51.806Z,24.00
2019-05-28T04:47:54.559Z,26.00
2019-05-28T04:48:56.447Z,24.00
2019-05-28T04:49:58.935Z,25.20
2019-05-28T04:51:01.992Z,24.00
2019-05-28T04:52:04.141Z,23.60
2019-05-28T04:53:06.527Z,23.40
2019-05-28T04:54:09.036Z,24.40
2019-05-28T04:55:12.734Z,23.00
2019-05-28T04:56:15.268Z,23.80
2019-05-28T04:57:18.007Z,23.00
2019-05-28T04:58:21.400Z,23.00
2019-05-28T04:59:24.233Z,24.00
2019-05-28T05:00:27.066Z,23.00
2019-05-28T05:01:30.255Z,23.40
2019-05-28T05:02:32.727Z,23.00
2019-05-28T05:03:36.143Z,22.80
2019-05-28T05:04:38.477Z,23.60
2019-05-28T05:05:41.090Z,23.00
2019-05-28T05:06:43.926Z,23.80
2019-05-28T05:07:46.299Z,22.00
2019-05-28T05:08:50.129Z,23.40
2019-05-28T05:09:52.990Z,23.00
2019-05-28T05:10:55.620Z,23.00
2019-05-28T05:11:58.375Z,21.60
2019-05-28T05:13:00.850Z,22.00
2019-05-28T05:14:04.104Z,23.00
2019-05-28T05:15:07.779Z,23.20
2019-05-28T05:16:10.912Z,23.60
2019-05-28T05:17:13.771Z,20.60
2019-05-28T05:18:16.510Z,23.00
2019-05-28T05:19:18.631Z,21.40
2019-05-28T05:20:23.646Z,22.20
2019-05-28T05:21:26.224Z,22.60
2019-05-28T05:22:28.732Z,15.60
2019-05-28T05:23:32.215Z,17.20
2019-05-28T05:24:35.456Z,20.20
2019-05-28T05:25:38.098Z,19.60
2019-05-28T05:26:41.309Z,20.20
2019-05-28T05:27:44.148Z,21.00
2019-05-28T05:28:47.625Z,19.80
2019-05-28T05:29:50.093Z,20.20
2019-05-28T05:30:53.042Z,22.60
2019-05-28T05:31:55.876Z,19.80
2019-05-28T05:33:18.281Z,19.80
2019-05-28T05:34:03.115Z,20.40
2019-05-28T05:35:06.195Z,20.20
2019-05-28T05:36:08.489Z,22.80
2019-05-28T05:37:11.147Z,19.80
2019-05-28T05:38:14.046Z,20.20
2019-05-28T05:39:17.297Z,20.00
2019-05-28T05:40:20.805Z,21.00
2019-05-28T05:41:23.874Z,20.80
2019-05-28T05:42:27.442Z,18.20
2019-05-28T05:43:29.843Z,21.40
2019-05-28T05:44:32.753Z,21.00
2019-05-28T05:45:35.153Z,22.60
2019-05-28T05:46:38.654Z,22.40
2019-05-28T05:47:41.841Z,22.00
2019-05-28T05:48:43.791Z,21.00
2019-05-28T05:49:46.755Z,20.60
2019-05-28T05:50:49.131Z,20.40
2019-05-28T05:51:51.585Z,19.20
2019-05-28T05:52:55.756Z,20.20
2019-05-28T05:54:00.058Z,21.20
2019-05-28T05:55:05.321Z,18.20
2019-05-28T05:56:07.832Z,19.40
2019-05-28T05:57:10.802Z,18.00
2019-05-28T05:58:13.933Z,19.20
2019-05-28T05:59:16.680Z,19.60
2019-05-28T06:00:20.344Z,18.20
2019-05-28T06:01:23.034Z,20.60
2019-05-28T06:02:25.393Z,17.00
2019-05-28T06:03:39.698Z,18.20
2019-05-28T06:04:33.949Z,16.80
2019-05-28T06:05:36.314Z,18.00
2019-05-28T06:06:38.124Z,18.20
2019-05-28T06:07:42.115Z,18.00
2019-05-28T06:08:45.067Z,18.60
2019-05-28T06:09:47.686Z,17.00
2019-05-28T06:10:50.969Z,17.40
2019-05-28T06:11:53.626Z,16.40
2019-05-28T06:12:56.161Z,17.60
2019-05-28T06:13:58.558Z,17.40
2019-05-28T06:15:01.421Z,17.20
2019-05-28T06:16:05.424Z,16.40
2019-05-28T06:17:08.623Z,15.80
2019-05-28T06:18:11.331Z,16.20
2019-05-28T06:19:14.218Z,20.00
2019-05-28T06:20:18.412Z,18.20
2019-05-28T06:21:23.002Z,17.20
2019-05-28T06:22:25.876Z,23.00
2019-05-28T06:23:29.141Z,19.00
2019-05-28T06:24:31.882Z,20.00
2019-05-28T06:25:34.261Z,17.20
2019-05-28T06:26:38.412Z,18.60
2019-05-28T06:27:41.444Z,18.80
2019-05-28T06:28:44.136Z,19.20
2019-05-28T06:29:46.829Z,18.80
2019-05-28T06:30:50.882Z,18.80
2019-05-28T06:31:54.335Z,18.80
2019-05-28T06:32:57.408Z,18.40
2019-05-28T06:34:01.958Z,19.40
2019-05-28T06:35:05.656Z,19.20
2019-05-28T06:36:08.356Z,19.20
2019-05-28T06:37:12.750Z,18.80
2019-05-28T06:38:16.023Z,19.60
2019-05-28T06:39:18.805Z,17.40
2019-05-28T06:40:21.325Z,17.40
2019-05-28T06:41:24.503Z,19.80
2019-05-28T06:42:27.986Z,19.80
2019-05-28T06:43:31.137Z,18.40
2019-05-28T06:44:34.123Z,18.60
2019-05-28T06:45:36.510Z,18.40
2019-05-28T06:46:38.934Z,18.60
2019-05-28T06:47:45.029Z,17.60
2019-05-28T06:48:49.399Z,17.40
2019-05-28T06:49:53.412Z,17.40
2019-05-28T06:50:56.451Z,18.00
2019-05-28T06:52:00.146Z,16.40
2019-05-28T06:53:03.183Z,19.20
2019-05-28T06:54:06.041Z,16.00
2019-05-28T06:55:09.358Z,19.00
2019-05-28T06:56:14.491Z,18.40
2019-05-28T06:57:22.881Z,17.00
2019-05-28T06:58:37.846Z,16.80
2019-05-28T06:59:29.726Z,16.60
2019-05-28T07:00:32.343Z,18.00
2019-05-28T07:01:34.995Z,18.80
2019-05-28T07:02:38.669Z,18.00
2019-05-28T07:03:40.525Z,14.80
2019-05-28T07:04:43.911Z,14.80
2019-05-28T07:06:05.093Z,16.00
2019-05-28T07:06:52.117Z,14.20
2019-05-28T07:07:56.470Z,16.20
2019-05-28T07:09:00.545Z,14.20
2019-05-28T07:10:08.747Z,13.00
2019-05-28T07:11:13.230Z,16.00
2019-05-28T07:12:18.308Z,14.00
2019-05-28T07:13:21.281Z,15.40
2019-05-28T07:14:26.089Z,15.40
2019-05-28T07:15:28.205Z,14.00
2019-05-28T07:16:32.434Z,12.00
2019-05-28T07:17:35.161Z,12.80
2019-05-28T07:18:37.956Z,13.40
2019-05-28T07:19:41.012Z,14.00
2019-05-28T07:20:44.319Z,12.40
2019-05-28T07:21:46.388Z,15.00
2019-05-28T07:22:49.379Z,14.80
2019-05-28T07:23:51.805Z,13.20
2019-05-28T07:24:54.898Z,12.80
2019-05-28T07:25:57.260Z,12.40
2019-05-28T07:27:00.121Z,13.40
2019-05-28T07:28:11.052Z,13.60
2019-05-28T07:29:07.037Z,12.00
2019-05-28T07:30:10.763Z,13.40
2019-05-28T07:31:14.130Z,13.80
2019-05-28T07:32:17.122Z,13.20
2019-05-28T07:33:19.921Z,12.00
2019-05-28T07:34:30.715Z,11.80
2019-05-28T07:35:26.834Z,12.00
2019-05-28T07:36:30.314Z,11.80
2019-05-28T07:37:33.109Z,9.60
2019-05-28T07:38:35.407Z,11.80
2019-05-28T07:39:39.096Z,12.20
2019-05-28T07:40:43.070Z,12.60
2019-05-28T07:41:45.518Z,11.00
2019-05-28T07:42:47.846Z,12.40
2019-05-28T07:43:50.106Z,13.20
2019-05-28T07:44:52.478Z,13.20
2019-05-28T07:45:54.362Z,11.80
2019-05-28T07:46:57.257Z,12.40
2019-05-28T07:47:59.938Z,10.80
2019-05-28T07:49:02.791Z,12.00
2019-05-28T07:50:06.526Z,11.40
2019-05-28T07:51:08.562Z,9.00
2019-05-28T07:52:11.397Z,11.00
2019-05-28T07:53:14.350Z,10.60
2019-05-28T07:54:17.040Z,12.00
2019-05-28T07:55:19.464Z,12.20
2019-05-28T07:56:22.655Z,10.40
2019-05-28T07:57:26.442Z,8.80
2019-05-28T07:58:29.078Z,9.80
2019-05-28T07:59:31.432Z,9.00
2019-05-28T08:00:41.531Z,10.00
2019-05-28T08:01:45.508Z,10.20
2019-05-28T08:02:52.076Z,7.20
2019-05-28T08:03:54.213Z,8.00
2019-05-28T08:04:56.994Z,8.40
2019-05-28T08:05:59.815Z,8.20
2019-05-28T08:07:01.750Z,7.60
2019-05-28T08:08:07.681Z,8.20
2019-05-28T08:09:10.110Z,7.00
2019-05-28T08:10:13.263Z,8.80
2019-05-28T08:11:18.935Z,9.20
2019-05-28T08:12:22.183Z,8.20
2019-05-28T08:13:39.616Z,8.80
2019-05-28T08:14:29.225Z,11.00
2019-05-28T08:15:31.960Z,11.60
2019-05-28T08:16:34.657Z,8.20
2019-05-28T08:17:37.466Z,9.20
2019-05-28T08:18:39.997Z,8.40
2019-05-28T08:19:43.468Z,6.40
2019-05-28T08:20:46.617Z,7.00
2019-05-28T08:21:48.998Z,8.40
2019-05-28T08:22:54.592Z,8.60
2019-05-28T08:23:59.076Z,8.00
2019-05-28T08:25:04.067Z,7.80
2019-05-28T08:26:08.926Z,7.40
2019-05-28T08:27:12.023Z,7.00
2019-05-28T08:28:19.900Z,6.80
2019-05-28T08:29:19.052Z,7.20
2019-05-28T08:30:22.529Z,8.60
2019-05-28T08:31:25.161Z,9.00
2019-05-28T08:32:28.128Z,8.60
2019-05-28T08:33:30.139Z,8.20
2019-05-28T08:34:34.808Z,8.00
2019-05-28T08:35:38.056Z,9.00
2019-05-28T08:36:42.143Z,9.00
2019-05-28T08:37:46.151Z,7.80
2019-05-28T08:38:48.978Z,8.80
2019-05-28T08:39:51.475Z,7.20
2019-05-28T08:40:54.340Z,9.00
2019-05-28T08:41:56.834Z,7.60
2019-05-28T08:42:59.138Z,8.20
2019-05-28T08:44:01.937Z,7.00
2019-05-28T08:45:06.218Z,7.80
2019-05-28T08:46:08.419Z,8.60
2019-05-28T08:47:10.799Z,7.80
2019-05-28T08:48:13.718Z,8.80
2019-05-28T08:49:18.497Z,9.00
2019-05-28T08:50:33.616Z,7.00
2019-05-28T08:51:26.198Z,9.40
2019-05-28T08:52:28.624Z,8.20
2019-05-28T08:53:31.348Z,9.00
2019-05-28T08:54:33.698Z,9.20
2019-05-28T08:55:36.377Z,9.40
2019-05-28T08:56:38.820Z,8.40
2019-05-28T08:57:41.291Z,7.80
2019-05-28T08:58:44.728Z,9.00
2019-05-28T08:59:47.252Z,10.40
2019-05-28T09:00:49.092Z,9.60
2019-05-28T09:01:52.013Z,8.60
2019-05-28T09:02:54.638Z,7.80
2019-05-28T09:03:56.790Z,11.00
2019-05-28T09:04:59.559Z,9.80
2019-05-28T09:06:02.741Z,9.20
2019-05-28T09:07:04.816Z,14.20
2019-05-28T09:08:07.980Z,9.60
2019-05-28T09:09:14.159Z,9.60
2019-05-28T09:10:17.254Z,10.40
2019-05-28T09:11:20.631Z,8.40
2019-05-28T09:12:24.984Z,11.60
2019-05-28T09:13:27.695Z,12.00
2019-05-28T09:14:53.986Z,9.00
2019-05-28T09:15:34.919Z,10.40
2019-05-28T09:16:37.522Z,8.60
2019-05-28T09:17:39.823Z,11.00
2019-05-28T09:18:42.475Z,8.60
2019-05-28T09:19:46.410Z,8.80
2019-05-28T09:20:50.792Z,7.80
2019-05-28T09:21:54.463Z,10.40
2019-05-28T09:22:56.748Z,10.80
2019-05-28T09:23:59.425Z,8.40
2019-05-28T09:25:05.153Z,9.00
2019-05-28T09:26:08.924Z,8.40
2019-05-28T09:27:14.449Z,12.60
2019-05-28T09:28:29.494Z,8.20
2019-05-28T09:29:23.693Z,8.40
2019-05-28T09:30:26.838Z,10.00
2019-05-28T09:31:30.905Z,10.60
2019-05-28T09:32:33.666Z,12.20
2019-05-28T09:33:36.451Z,11.40
2019-05-28T09:34:38.902Z,8.80
2019-05-28T09:35:46.769Z,10.40
2019-05-28T09:36:47.997Z,11.00
2019-05-28T09:37:50.775Z,11.60
2019-05-28T09:38:53.121Z,12.40
2019-05-28T09:39:57.067Z,11.00
2019-05-28T09:40:59.309Z,12.40
2019-05-28T09:42:03.946Z,11.80
2019-05-28T09:43:06.498Z,9.00
2019-05-28T09:44:09.387Z,10.40
2019-05-28T09:45:22.306Z,14.20
2019-05-28T09:46:17.548Z,11.20
2019-05-28T09:47:21.681Z,14.20
2019-05-28T09:48:25.281Z,11.00
2019-05-28T09:49:26.954Z,12.20
2019-05-28T09:50:31.341Z,15.00
2019-05-28T09:51:35.141Z,11.20
2019-05-28T09:52:53.140Z,13.60
2019-05-28T09:53:42.893Z,12.80
2019-05-28T09:54:44.857Z,15.20
2019-05-28T09:55:48.465Z,12.20
2019-05-28T09:56:50.976Z,14.60
2019-05-28T09:57:52.855Z,14.80
2019-05-28T09:58:55.852Z,15.00
2019-05-28T09:59:58.299Z,17.60
2019-05-28T10:01:00.282Z,15.00
2019-05-28T10:02:03.845Z,15.80
2019-05-28T10:03:07.833Z,14.60
2019-05-28T10:04:09.626Z,12.00
2019-05-28T10:05:12.940Z,14.60
2019-05-28T10:06:18.274Z,17.40
2019-05-28T10:07:21.329Z,14.60
2019-05-28T10:08:23.848Z,13.60
2019-05-28T10:09:28.302Z,12.60
2019-05-28T10:10:32.126Z,16.00
2019-05-28T10:11:34.715Z,15.00
2019-05-28T10:12:37.232Z,15.80
2019-05-28T10:13:42.005Z,16.80
2019-05-28T10:14:44.908Z,17.00
2019-05-28T10:15:46.758Z,19.00
2019-05-28T10:16:49.235Z,14.80
2019-05-28T10:17:51.728Z,15.20
2019-05-28T10:18:54.213Z,14.80
2019-05-28T10:19:56.546Z,15.80
2019-05-28T10:21:16.548Z,17.00
2019-05-28T10:22:04.551Z,15.40
2019-05-28T10:23:08.537Z,15.20
2019-05-28T10:24:11.787Z,14.60
2019-05-28T10:25:16.663Z,16.20
2019-05-28T10:26:20.511Z,16.40
2019-05-28T10:27:23.045Z,16.00
2019-05-28T10:28:26.850Z,15.40
2019-05-28T10:29:29.681Z,14.80
2019-05-28T10:30:32.261Z,14.20
2019-05-28T10:31:34.989Z,14.00
2019-05-28T10:32:37.998Z,16.00
2019-05-28T10:33:41.522Z,16.20
2019-05-28T10:35:02.563Z,16.60
2019-05-28T10:35:52.190Z,14.60
2019-05-28T10:36:54.201Z,15.00
2019-05-28T10:37:56.604Z,13.80
2019-05-28T10:39:03.543Z,16.60
2019-05-28T10:40:10.077Z,16.20
2019-05-28T10:41:12.929Z,16.20
2019-05-28T10:42:14.645Z,15.60
2019-05-28T10:43:17.680Z,16.80
2019-05-28T10:44:21.074Z,15.20
2019-05-28T10:45:25.929Z,17.00
2019-05-28T10:46:27.809Z,19.00
2019-05-28T10:47:31.895Z,16.40
2019-05-28T10:48:37.704Z,17.20
2019-05-28T10:49:40.293Z,18.40
2019-05-28T10:50:42.656Z,17.40
2019-05-28T10:51:47.161Z,16.80
2019-05-28T10:52:49.988Z,15.40
2019-05-28T10:53:52.887Z,17.60
2019-05-28T10:54:56.133Z,19.00
2019-05-28T10:55:58.670Z,15.20
2019-05-28T10:57:01.999Z,16.40
2019-05-28T10:58:05.814Z,15.60
2019-05-28T10:59:08.175Z,16.00
2019-05-28T11:00:12.584Z,15.80
2019-05-28T11:01:15.147Z,17.00
2019-05-28T11:02:19.389Z,18.40
2019-05-28T11:03:22.686Z,18.80
2019-05-28T11:04:25.394Z,13.80
2019-05-28T11:05:27.954Z,17.60
2019-05-28T11:06:30.797Z,17.40
2019-05-28T11:07:33.564Z,19.00
2019-05-28T11:08:36.627Z,15.80
2019-05-28T11:09:40.101Z,17.00
2019-05-28T11:10:44.295Z,17.00
2019-05-28T11:11:48.591Z,14.20
2019-05-28T11:12:50.419Z,16.60
2019-05-28T11:13:53.802Z,15.20
2019-05-28T11:14:57.988Z,16.40
2019-05-28T11:15:59.679Z,17.00
2019-05-28T11:17:03.557Z,15.00
2019-05-28T11:18:07.277Z,16.80
2019-05-28T11:19:10.028Z,15.20
2019-05-28T11:20:16.477Z,12.60
2019-05-28T11:21:19.481Z,13.80
2019-05-28T11:22:21.199Z,16.60
2019-05-28T11:23:24.745Z,17.00
2019-05-28T11:24:27.078Z,15.60
2019-05-28T11:25:30.893Z,15.40
2019-05-28T11:26:33.360Z,15.20
2019-05-28T11:27:36.496Z,16.60
2019-05-28T11:28:43.531Z,15.20
2019-05-28T11:29:47.650Z,15.60
2019-05-28T11:30:51.386Z,14.00
2019-05-28T11:31:55.221Z,15.20
2019-05-28T11:32:59.655Z,16.60
2019-05-28T11:34:01.772Z,17.20
2019-05-28T11:35:06.278Z,16.40
2019-05-28T11:36:09.051Z,15.60
2019-05-28T11:37:11.820Z,14.60
2019-05-28T11:38:14.350Z,12.60
2019-05-28T11:39:17.250Z,13.20
2019-05-28T11:40:20.511Z,16.20
2019-05-28T11:41:40.855Z,15.00
2019-05-28T11:42:30.084Z,13.80
2019-05-28T11:43:33.055Z,13.60
2019-05-28T11:44:36.783Z,13.60
2019-05-28T11:45:39.010Z,16.00
2019-05-28T11:46:41.703Z,15.60
2019-05-28T11:47:50.191Z,13.40
2019-05-28T11:48:50.665Z,14.40
2019-05-28T11:49:53.630Z,12.60
2019-05-28T11:50:58.137Z,16.00
2019-05-28T11:52:00.595Z,15.60
2019-05-28T11:53:04.162Z,14.60
2019-05-28T11:54:06.614Z,14.60
2019-05-28T11:55:14.902Z,13.80
2019-05-28T11:56:18.081Z,15.00
2019-05-28T11:57:24.205Z,13.20
2019-05-28T11:58:26.514Z,13.60
2019-05-28T11:59:28.809Z,14.00
2019-05-28T12:00:31.999Z,13.60
2019-05-28T12:01:35.500Z,15.40
2019-05-28T12:02:40.025Z,14.20
2019-05-28T12:03:42.538Z,11.60
2019-05-28T12:04:44.909Z,15.00
2019-05-28T12:05:47.543Z,13.00
2019-05-28T12:06:50.447Z,14.40
2019-05-28T12:07:54.258Z,13.40
2019-05-28T12:08:57.897Z,14.00
2019-05-28T12:10:02.582Z,14.20
2019-05-28T12:11:05.756Z,15.20
2019-05-28T12:12:08.389Z,11.80
2019-05-28T12:13:12.393Z,13.60
2019-05-28T12:14:14.960Z,14.20
2019-05-28T12:15:18.550Z,17.00
2019-05-28T12:16:23.078Z,14.40
2019-05-28T12:17:41.713Z,14.20
2019-05-28T12:18:31.105Z,15.20
2019-05-28T12:19:33.599Z,15.80
2019-05-28T12:20:36.405Z,16.60
2019-05-28T12:21:38.180Z,16.00
2019-05-28T12:22:41.970Z,15.00
2019-05-28T12:23:48.870Z,15.20
2019-05-28T12:24:52.332Z,14.00
2019-05-28T12:25:56.720Z,16.00
2019-05-28T12:26:59.374Z,15.80
2019-05-28T12:28:01.391Z,17.00
2019-05-28T12:29:07.010Z,16.00
2019-05-28T12:30:18.016Z,16.00
2019-05-28T12:31:19.224Z,15.80
2019-05-28T12:32:22.901Z,14.40
2019-05-28T12:33:26.724Z,12.40
2019-05-28T12:34:28.704Z,18.40
2019-05-28T12:35:31.346Z,17.40
2019-05-28T12:36:35.502Z,16.20
2019-05-28T12:37:47.943Z,16.40
2019-05-28T12:38:42.588Z,14.60
2019-05-28T12:39:45.106Z,16.00
2019-05-28T12:40:48.641Z,13.80
2019-05-28T12:42:01.688Z,14.60
2019-05-28T12:42:55.102Z,14.20
2019-05-28T12:43:58.004Z,15.20
2019-05-28T12:45:09.640Z,14.00
2019-05-28T12:46:04.968Z,14.60
2019-05-28T12:47:07.964Z,15.20
2019-05-28T12:48:13.213Z,14.20
2019-05-28T12:49:19.077Z,13.80
2019-05-28T12:50:23.019Z,14.00
2019-05-28T12:51:27.114Z,15.80
2019-05-28T12:52:31.600Z,14.40
2019-05-28T12:53:49.439Z,14.40
2019-05-28T12:54:39.045Z,14.40
2019-05-28T12:55:41.535Z,15.20
2019-05-28T12:56:43.920Z,14.20
2019-05-28T12:57:46.385Z,14.80
2019-05-28T12:58:48.960Z,16.20
2019-05-28T12:59:51.376Z,11.20
2019-05-28T13:00:55.443Z,11.40
2019-05-28T13:01:57.967Z,12.60
2019-05-28T13:03:01.382Z,11.80
2019-05-28T13:04:04.344Z,13.00
2019-05-28T13:05:15.412Z,12.60
2019-05-28T13:06:20.227Z,11.20
2019-05-28T13:07:22.875Z,11.60
2019-05-28T13:08:25.657Z,10.80
2019-05-28T13:09:28.406Z,11.00
2019-05-28T13:10:30.977Z,10.80
2019-05-28T13:11:33.514Z,10.00
2019-05-28T13:12:37.845Z,11.20
2019-05-28T13:13:41.130Z,9.20
2019-05-28T13:14:43.605Z,11.00
2019-05-28T13:15:46.222Z,6.60
2019-05-28T13:16:52.576Z,8.80
2019-05-28T13:17:55.387Z,9.80
2019-05-28T13:18:58.984Z,7.80
2019-05-28T13:20:01.677Z,7.00
2019-05-28T13:21:04.690Z,8.80
2019-05-28T13:22:07.322Z,9.80
2019-05-28T13:23:09.743Z,8.00
2019-05-28T13:24:13.037Z,8.40
2019-05-28T13:25:15.649Z,7.80
2019-05-28T13:26:18.799Z,7.00
2019-05-28T13:27:25.547Z,8.20
2019-05-28T13:28:27.975Z,7.80
2019-05-28T13:29:30.763Z,8.80
2019-05-28T13:30:34.111Z,9.60
2019-05-28T13:31:37.044Z,8.00
2019-05-28T13:32:39.764Z,8.20
2019-05-28T13:33:42.526Z,7.40
2019-05-28T13:34:45.099Z,5.80
2019-05-28T13:35:47.517Z,9.00
2019-05-28T13:36:50.189Z,10.80
2019-05-28T13:37:53.109Z,13.60
2019-05-28T13:38:55.757Z,16.40